This is the latest recevied weather packets stored in our database for station/object DM4XI-13. If no packets are shown the sender has not sent any weather packets the latest 10 day(s).
| Time | Temp. | Humidity | Pressure | Rain* | Wind** | Luminosity | Snow |
|---|---|---|---|---|---|---|---|
| 1777974711 | 23.89° C | 44% | 1005.4 hPa | 0 mm | 0 m/s | 429 W/m² | - |
| 1777974651 | 23.89° C | 44% | 1005.6 hPa | 0 mm | 0.89 m/s, 169° | 457 W/m² | - |
| 1777974590 | 23.89° C | 45% | 1005.5 hPa | 0 mm | 0.89 m/s, 152° | 590 W/m² | - |
| 1777974528 | 23.89° C | 44% | 1005.6 hPa | 0 mm | 0 m/s | 590 W/m² | - |
| 1777974467 | 23.89° C | 43% | 1005.5 hPa | 0 mm | 1.34 m/s, 96° | 597 W/m² | - |
| 1777974406 | 23.89° C | 44% | 1005.6 hPa | 0 mm | 0.89 m/s, 186° | 612 W/m² | - |
| 1777974345 | 23.89° C | 43% | 1005.5 hPa | 0 mm | 0 m/s | 619 W/m² | - |
| 1777974284 | 23.89° C | 42% | 1005.6 hPa | 0 mm | 0.89 m/s, 168° | 627 W/m² | - |
| 1777974223 | 23.33° C | 43% | 1005.5 hPa | 0 mm | 0.45 m/s, 167° | 626 W/m² | - |
| 1777974162 | 22.78° C | 46% | 1005.6 hPa | 0 mm | 0.45 m/s, 177° | 613 W/m² | - |
| 1777974101 | 22.78° C | 46% | 1005.5 hPa | 0 mm | 0 m/s | 585 W/m² | - |
| 1777974040 | 22.78° C | 45% | 1005.6 hPa | 0 mm | 0.45 m/s, 166° | 521 W/m² | - |
| 1777973979 | 22.78° C | 47% | 1005.6 hPa | 0 mm | 0.45 m/s, 179° | 484 W/m² | - |
| 1777973918 | 22.78° C | 44% | 1005.7 hPa | 0 mm | 0.45 m/s, 149° | 477 W/m² | - |
| 1777973857 | 22.78° C | 47% | 1005.5 hPa | 0 mm | 0.45 m/s, 163° | 419 W/m² | - |
| 1777973796 | 22.78° C | 45% | 1005.6 hPa | 0 mm | 0.45 m/s, 165° | 477 W/m² | - |
| 1777973735 | 22.78° C | 46% | 1005.8 hPa | 0 mm | 0.45 m/s, 178° | 505 W/m² | - |
| 1777973674 | 22.78° C | 45% | 1005.8 hPa | 0 mm | 0.89 m/s, 188° | 569 W/m² | - |
| 1777973613 | 22.78° C | 45% | 1005.7 hPa | 0 mm | 1.34 m/s, 152° | 506 W/m² | - |
| 1777973552 | 22.78° C | 46% | 1005.7 hPa | 0 mm | 0.89 m/s, 178° | 558 W/m² | - |
| 1777973491 | 22.78° C | 45% | 1005.8 hPa | 0 mm | 0.89 m/s, 180° | 568 W/m² | - |
| 1777973430 | 22.78° C | 45% | 1005.7 hPa | 0 mm | 0.89 m/s, 186° | 569 W/m² | - |
| 1777973369 | 22.78° C | 44% | 1005.7 hPa | 0 mm | 1.79 m/s, 139° | 555 W/m² | - |
| 1777973308 | 23.33° C | 46% | 1005.8 hPa | 0 mm | 0.89 m/s, 180° | 543 W/m² | - |
| 1777973247 | 23.33° C | 45% | 1005.7 hPa | 0 mm | 0.89 m/s, 171° | 529 W/m² | - |
* Rain latest hour (hover to see other rain measurements)
** Current wind speed in m/s (hover to see current wind gust speed)